Terminal Aerodrome Forecast
Issued by NWS Charleston, WV

Current Version | Previous Version | Graphics & Text | Print | Product List | Glossary On
Versions: 1 2 3 4 5 6 7 8 9 10 11 12 13 14 15 16 17 18 19 20 21 22 23
720
FTUS41 KRLX 232320
TAFEKN
TAF
KEKN 232320Z 2400/2424 14009G16KT P6SM SCT050 OVC080
     FM240100 14010G17KT P6SM -RA OVC060
     FM240400 14013G21KT P6SM OVC050
     FM240900 13016G26KT P6SM -SHRA OVC060
     FM241500 13014G23KT P6SM -SHRA OVC030
     FM242000 12011G19KT P6SM -SHRA OVC025
     FM242300 12010G18KT P6SM -SHRA OVC035=

USA.gov is the U.S. government's official web portal to all federal, state and local government web resources and services.